Olovjannaja, Russia
Current Conditions -  °F | °C
As of 10:00 AM on Wednesday 22 Oct 2014 (Local Time) from UIAA Reporting Station
Broken Clouds Broken Clouds  
Wind Chill: -9°   Ceiling: 20000
Heat Index: -9°   Visibility: 6mi
Dew Point: -12°   Wind: 0mph
Humidity: 79%   Direction: NA
Pressure: 29.85"   Gusts: NA
Location:  50.95°N, 115.57°E
Report Text: UIAA 220100Z 00000MPS 9999 BKN200 M09/M12 Q1011 NOSIG RMKQFE700 29CLRD70
Loading
Personal Weather Stations






























Interactive Weather Map
Tropical Storm Tracking
New forecast layout! Learn more

10-Day Weather Forecast

Advertisements
Track Severe Weather on mobile